sensor_id;sensor_type;location;lat;lon;timestamp;P1;durP1;ratioP1;P2;durP2;ratioP2
50350;SDS011;36250;48.740;22.174;2022-11-12T00:00:33;33.60;;;18.25;;
50350;SDS011;36250;48.740;22.174;2022-11-12T00:02:58;30.77;;;18.02;;
50350;SDS011;36250;48.740;22.174;2022-11-12T00:05:24;30.30;;;17.80;;
50350;SDS011;36250;48.740;22.174;2022-11-12T00:07:49;33.63;;;17.33;;
50350;SDS011;36250;48.740;22.174;2022-11-12T00:10:15;28.42;;;16.48;;
50350;SDS011;36250;48.740;22.174;2022-11-12T00:12:41;26.13;;;15.07;;
50350;SDS011;36250;48.740;22.174;2022-11-12T00:15:06;25.95;;;14.57;;
50350;SDS011;36250;48.740;22.174;2022-11-12T00:17:33;24.65;;;14.10;;
50350;SDS011;36250;48.740;22.174;2022-11-12T00:19:58;22.58;;;14.18;;
50350;SDS011;36250;48.740;22.174;2022-11-12T00:22:24;20.90;;;13.15;;
50350;SDS011;36250;48.740;22.174;2022-11-12T00:24:49;29.10;;;14.05;;
50350;SDS011;36250;48.740;22.174;2022-11-12T00:27:14;29.00;;;13.82;;
50350;SDS011;36250;48.740;22.174;2022-11-12T00:29:40;27.67;;;14.52;;
50350;SDS011;36250;48.740;22.174;2022-11-12T00:32:05;26.02;;;15.80;;
50350;SDS011;36250;48.740;22.174;2022-11-12T00:34:32;24.02;;;15.43;;
50350;SDS011;36250;48.740;22.174;2022-11-12T00:36:59;19.58;;;14.05;;
50350;SDS011;36250;48.740;22.174;2022-11-12T00:39:24;22.38;;;13.93;;
50350;SDS011;36250;48.740;22.174;2022-11-12T00:41:49;20.60;;;12.98;;
50350;SDS011;36250;48.740;22.174;2022-11-12T00:44:15;22.35;;;14.15;;
50350;SDS011;36250;48.740;22.174;2022-11-12T00:46:40;22.65;;;13.85;;
50350;SDS011;36250;48.740;22.174;2022-11-12T00:49:06;23.63;;;13.52;;
50350;SDS011;36250;48.740;22.174;2022-11-12T00:51:33;24.33;;;15.27;;
50350;SDS011;36250;48.740;22.174;2022-11-12T00:53:59;27.50;;;14.82;;
50350;SDS011;36250;48.740;22.174;2022-11-12T00:56:24;19.90;;;12.88;;
50350;SDS011;36250;48.740;22.174;2022-11-12T00:58:50;22.23;;;13.50;;
50350;SDS011;36250;48.740;22.174;2022-11-12T01:01:15;22.20;;;13.95;;
50350;SDS011;36250;48.740;22.174;2022-11-12T01:03:41;25.67;;;15.00;;
50350;SDS011;36250;48.740;22.174;2022-11-12T01:06:09;22.08;;;14.40;;
50350;SDS011;36250;48.740;22.174;2022-11-12T01:08:42;22.58;;;14.75;;
50350;SDS011;36250;48.740;22.174;2022-11-12T01:11:08;32.90;;;19.98;;
50350;SDS011;36250;48.740;22.174;2022-11-12T01:13:45;35.00;;;17.50;;
50350;SDS011;36250;48.740;22.174;2022-11-12T01:16:13;32.30;;;17.20;;
50350;SDS011;36250;48.740;22.174;2022-11-12T01:18:41;28.38;;;17.25;;
50350;SDS011;36250;48.740;22.174;2022-11-12T01:21:07;23.05;;;14.00;;
50350;SDS011;36250;48.740;22.174;2022-11-12T01:23:34;22.63;;;13.45;;
50350;SDS011;36250;48.740;22.174;2022-11-12T01:26:04;24.38;;;14.45;;
50350;SDS011;36250;48.740;22.174;2022-11-12T01:28:30;21.17;;;13.55;;
50350;SDS011;36250;48.740;22.174;2022-11-12T01:30:56;30.35;;;18.63;;
50350;SDS011;36250;48.740;22.174;2022-11-12T01:33:21;13.70;;;8.90;;
50350;SDS011;36250;48.740;22.174;2022-11-12T01:35:46;14.40;;;9.27;;
50350;SDS011;36250;48.740;22.174;2022-11-12T01:38:12;14.82;;;9.63;;
50350;SDS011;36250;48.740;22.174;2022-11-12T01:40:37;16.13;;;10.38;;
50350;SDS011;36250;48.740;22.174;2022-11-12T01:43:02;14.52;;;9.20;;
50350;SDS011;36250;48.740;22.174;2022-11-12T01:45:28;14.68;;;10.25;;
50350;SDS011;36250;48.740;22.174;2022-11-12T01:47:53;13.70;;;10.07;;
50350;SDS011;36250;48.740;22.174;2022-11-12T01:53:00;14.90;;;9.98;;
50350;SDS011;36250;48.740;22.174;2022-11-12T01:55:33;16.55;;;10.55;;
50350;SDS011;36250;48.740;22.174;2022-11-12T01:58:06;21.92;;;10.85;;
50350;SDS011;36250;48.740;22.174;2022-11-12T02:00:35;14.07;;;10.10;;
50350;SDS011;36250;48.740;22.174;2022-11-12T02:03:01;15.65;;;9.98;;
50350;SDS011;36250;48.740;22.174;2022-11-12T02:05:29;17.55;;;9.38;;
50350;SDS011;36250;48.740;22.174;2022-11-12T02:07:56;14.05;;;9.45;;
50350;SDS011;36250;48.740;22.174;2022-11-12T02:10:23;13.75;;;8.60;;
50350;SDS011;36250;48.740;22.174;2022-11-12T02:12:49;15.80;;;10.85;;
50350;SDS011;36250;48.740;22.174;2022-11-12T02:15:35;12.95;;;9.40;;
50350;SDS011;36250;48.740;22.174;2022-11-12T02:18:02;15.35;;;9.80;;
50350;SDS011;36250;48.740;22.174;2022-11-12T02:20:31;16.63;;;10.68;;
50350;SDS011;36250;48.740;22.174;2022-11-12T02:23:01;13.73;;;9.18;;
50350;SDS011;36250;48.740;22.174;2022-11-12T02:25:27;18.65;;;9.90;;
50350;SDS011;36250;48.740;22.174;2022-11-12T02:27:53;17.73;;;9.13;;
50350;SDS011;36250;48.740;22.174;2022-11-12T02:30:33;14.20;;;9.23;;
50350;SDS011;36250;48.740;22.174;2022-11-12T02:33:00;22.05;;;11.02;;
50350;SDS011;36250;48.740;22.174;2022-11-12T02:35:25;18.70;;;11.85;;
50350;SDS011;36250;48.740;22.174;2022-11-12T02:37:51;17.10;;;10.80;;
50350;SDS011;36250;48.740;22.174;2022-11-12T02:40:16;20.35;;;10.48;;
50350;SDS011;36250;48.740;22.174;2022-11-12T02:42:42;17.10;;;11.45;;
50350;SDS011;36250;48.740;22.174;2022-11-12T02:45:07;14.77;;;10.85;;
50350;SDS011;36250;48.740;22.174;2022-11-12T02:47:33;21.58;;;11.10;;
50350;SDS011;36250;48.740;22.174;2022-11-12T02:49:58;16.88;;;10.48;;
50350;SDS011;36250;48.740;22.174;2022-11-12T02:52:23;14.25;;;9.80;;
50350;SDS011;36250;48.740;22.174;2022-11-12T02:54:49;21.33;;;11.88;;
50350;SDS011;36250;48.740;22.174;2022-11-12T02:57:14;19.80;;;13.13;;
50350;SDS011;36250;48.740;22.174;2022-11-12T02:59:39;22.60;;;14.38;;
50350;SDS011;36250;48.740;22.174;2022-11-12T03:02:05;23.88;;;13.40;;
50350;SDS011;36250;48.740;22.174;2022-11-12T03:04:30;20.20;;;13.52;;
50350;SDS011;36250;48.740;22.174;2022-11-12T03:06:55;24.77;;;13.93;;
50350;SDS011;36250;48.740;22.174;2022-11-12T03:09:21;20.10;;;14.45;;
50350;SDS011;36250;48.740;22.174;2022-11-12T03:11:47;27.08;;;16.35;;
50350;SDS011;36250;48.740;22.174;2022-11-12T03:14:12;26.05;;;15.45;;
50350;SDS011;36250;48.740;22.174;2022-11-12T03:16:38;23.80;;;17.00;;
50350;SDS011;36250;48.740;22.174;2022-11-12T03:19:03;23.98;;;17.52;;
50350;SDS011;36250;48.740;22.174;2022-11-12T03:21:28;21.80;;;15.55;;
50350;SDS011;36250;48.740;22.174;2022-11-12T03:23:54;29.58;;;18.20;;
50350;SDS011;36250;48.740;22.174;2022-11-12T03:26:19;25.13;;;16.50;;
50350;SDS011;36250;48.740;22.174;2022-11-12T03:28:44;25.00;;;14.88;;
50350;SDS011;36250;48.740;22.174;2022-11-12T03:31:09;22.40;;;15.65;;
50350;SDS011;36250;48.740;22.174;2022-11-12T03:33:35;24.63;;;15.10;;
50350;SDS011;36250;48.740;22.174;2022-11-12T03:36:02;18.25;;;14.10;;
50350;SDS011;36250;48.740;22.174;2022-11-12T03:38:28;20.10;;;14.07;;
50350;SDS011;36250;48.740;22.174;2022-11-12T03:40:53;24.23;;;14.98;;
50350;SDS011;36250;48.740;22.174;2022-11-12T03:43:18;23.98;;;14.77;;
50350;SDS011;36250;48.740;22.174;2022-11-12T03:45:44;27.13;;;15.45;;
50350;SDS011;36250;48.740;22.174;2022-11-12T03:48:09;24.10;;;15.07;;
50350;SDS011;36250;48.740;22.174;2022-11-12T03:50:34;21.08;;;14.45;;
50350;SDS011;36250;48.740;22.174;2022-11-12T03:53:00;23.92;;;14.95;;
50350;SDS011;36250;48.740;22.174;2022-11-12T03:55:26;23.83;;;15.23;;
50350;SDS011;36250;48.740;22.174;2022-11-12T03:57:52;21.73;;;12.93;;
50350;SDS011;36250;48.740;22.174;2022-11-12T04:00:20;23.80;;;15.02;;
50350;SDS011;36250;48.740;22.174;2022-11-12T04:02:46;19.63;;;13.85;;
50350;SDS011;36250;48.740;22.174;2022-11-12T04:05:12;23.33;;;14.73;;
50350;SDS011;36250;48.740;22.174;2022-11-12T04:08:00;25.25;;;15.27;;
50350;SDS011;36250;48.740;22.174;2022-11-12T04:10:45;24.90;;;16.15;;
50350;SDS011;36250;48.740;22.174;2022-11-12T04:13:11;31.40;;;19.02;;
50350;SDS011;36250;48.740;22.174;2022-11-12T04:15:51;27.92;;;18.15;;
50350;SDS011;36250;48.740;22.174;2022-11-12T04:18:37;26.35;;;16.63;;
50350;SDS011;36250;48.740;22.174;2022-11-12T04:21:22;32.55;;;22.20;;
50350;SDS011;36250;48.740;22.174;2022-11-12T04:24:08;37.28;;;26.23;;
50350;SDS011;36250;48.740;22.174;2022-11-12T04:26:53;45.80;;;33.08;;
50350;SDS011;36250;48.740;22.174;2022-11-12T04:29:19;30.55;;;18.73;;
50350;SDS011;36250;48.740;22.174;2022-11-12T04:32:23;23.55;;;15.23;;
50350;SDS011;36250;48.740;22.174;2022-11-12T04:34:49;21.63;;;13.75;;
50350;SDS011;36250;48.740;22.174;2022-11-12T04:37:14;23.92;;;13.52;;
50350;SDS011;36250;48.740;22.174;2022-11-12T04:39:40;24.08;;;13.77;;
50350;SDS011;36250;48.740;22.174;2022-11-12T04:42:06;21.38;;;11.02;;
50350;SDS011;36250;48.740;22.174;2022-11-12T04:44:51;18.65;;;12.45;;
50350;SDS011;36250;48.740;22.174;2022-11-12T04:49:56;21.63;;;11.50;;
50350;SDS011;36250;48.740;22.174;2022-11-12T04:52:22;22.08;;;11.93;;
50350;SDS011;36250;48.740;22.174;2022-11-12T04:54:48;20.13;;;12.02;;
50350;SDS011;36250;48.740;22.174;2022-11-12T04:57:13;25.52;;;11.48;;
50350;SDS011;36250;48.740;22.174;2022-11-12T04:59:39;17.33;;;11.20;;
50350;SDS011;36250;48.740;22.174;2022-11-12T05:02:04;17.15;;;11.85;;
50350;SDS011;36250;48.740;22.174;2022-11-12T05:04:29;23.08;;;12.95;;
50350;SDS011;36250;48.740;22.174;2022-11-12T05:06:55;25.95;;;14.25;;
50350;SDS011;36250;48.740;22.174;2022-11-12T05:09:22;25.38;;;12.95;;
50350;SDS011;36250;48.740;22.174;2022-11-12T05:11:52;19.85;;;11.90;;
50350;SDS011;36250;48.740;22.174;2022-11-12T05:14:19;18.70;;;12.60;;
50350;SDS011;36250;48.740;22.174;2022-11-12T05:16:45;15.93;;;11.82;;
50350;SDS011;36250;48.740;22.174;2022-11-12T05:19:10;30.48;;;13.77;;
50350;SDS011;36250;48.740;22.174;2022-11-12T05:21:35;19.33;;;13.40;;
50350;SDS011;36250;48.740;22.174;2022-11-12T05:24:20;22.10;;;13.38;;
50350;SDS011;36250;48.740;22.174;2022-11-12T05:26:46;21.75;;;13.20;;
50350;SDS011;36250;48.740;22.174;2022-11-12T05:29:11;29.25;;;15.73;;
50350;SDS011;36250;48.740;22.174;2022-11-12T05:31:37;21.27;;;15.82;;
50350;SDS011;36250;48.740;22.174;2022-11-12T05:34:02;28.50;;;17.58;;
50350;SDS011;36250;48.740;22.174;2022-11-12T05:36:27;26.52;;;18.60;;
50350;SDS011;36250;48.740;22.174;2022-11-12T05:38:53;25.75;;;17.02;;
50350;SDS011;36250;48.740;22.174;2022-11-12T05:41:18;31.80;;;20.55;;
50350;SDS011;36250;48.740;22.174;2022-11-12T05:43:43;27.88;;;19.33;;
50350;SDS011;36250;48.740;22.174;2022-11-12T05:46:09;30.75;;;19.30;;
50350;SDS011;36250;48.740;22.174;2022-11-12T05:48:34;32.83;;;20.00;;
50350;SDS011;36250;48.740;22.174;2022-11-12T05:51:00;29.10;;;18.65;;
50350;SDS011;36250;48.740;22.174;2022-11-12T05:53:25;30.25;;;19.02;;
50350;SDS011;36250;48.740;22.174;2022-11-12T05:55:50;28.80;;;19.45;;
50350;SDS011;36250;48.740;22.174;2022-11-12T05:58:16;28.48;;;19.70;;
50350;SDS011;36250;48.740;22.174;2022-11-12T06:00:41;30.88;;;20.67;;
50350;SDS011;36250;48.740;22.174;2022-11-12T06:03:07;32.80;;;21.17;;
50350;SDS011;36250;48.740;22.174;2022-11-12T06:05:33;35.42;;;22.30;;
50350;SDS011;36250;48.740;22.174;2022-11-12T06:07:59;29.50;;;20.63;;
50350;SDS011;36250;48.740;22.174;2022-11-12T06:10:25;36.15;;;22.15;;
50350;SDS011;36250;48.740;22.174;2022-11-12T06:12:51;38.13;;;22.85;;
50350;SDS011;36250;48.740;22.174;2022-11-12T06:15:16;42.95;;;29.27;;
50350;SDS011;36250;48.740;22.174;2022-11-12T06:17:42;50.90;;;31.17;;
50350;SDS011;36250;48.740;22.174;2022-11-12T06:20:08;47.88;;;31.27;;
50350;SDS011;36250;48.740;22.174;2022-11-12T06:22:33;42.83;;;27.77;;
50350;SDS011;36250;48.740;22.174;2022-11-12T06:24:59;38.55;;;24.27;;
50350;SDS011;36250;48.740;22.174;2022-11-12T06:27:24;34.88;;;23.65;;
50350;SDS011;36250;48.740;22.174;2022-11-12T06:29:50;48.42;;;24.83;;
50350;SDS011;36250;48.740;22.174;2022-11-12T06:32:15;40.30;;;26.30;;
50350;SDS011;36250;48.740;22.174;2022-11-12T06:34:41;51.45;;;33.47;;
50350;SDS011;36250;48.740;22.174;2022-11-12T06:37:06;42.25;;;26.90;;
50350;SDS011;36250;48.740;22.174;2022-11-12T06:39:31;40.65;;;25.92;;
50350;SDS011;36250;48.740;22.174;2022-11-12T06:41:57;39.30;;;28.83;;
50350;SDS011;36250;48.740;22.174;2022-11-12T06:44:22;40.33;;;28.02;;
50350;SDS011;36250;48.740;22.174;2022-11-12T06:46:47;47.45;;;30.02;;
50350;SDS011;36250;48.740;22.174;2022-11-12T06:49:13;47.78;;;31.05;;
50350;SDS011;36250;48.740;22.174;2022-11-12T06:51:38;56.97;;;32.65;;
50350;SDS011;36250;48.740;22.174;2022-11-12T06:54:04;52.15;;;33.05;;
50350;SDS011;36250;48.740;22.174;2022-11-12T06:56:29;46.60;;;31.58;;
50350;SDS011;36250;48.740;22.174;2022-11-12T06:58:55;50.05;;;33.00;;
50350;SDS011;36250;48.740;22.174;2022-11-12T07:01:20;51.95;;;32.10;;
50350;SDS011;36250;48.740;22.174;2022-11-12T07:03:49;44.53;;;30.90;;
50350;SDS011;36250;48.740;22.174;2022-11-12T07:06:15;47.13;;;32.30;;
50350;SDS011;36250;48.740;22.174;2022-11-12T07:08:48;47.42;;;31.00;;
50350;SDS011;36250;48.740;22.174;2022-11-12T07:11:14;46.55;;;32.03;;
50350;SDS011;36250;48.740;22.174;2022-11-12T07:13:41;44.38;;;31.35;;
50350;SDS011;36250;48.740;22.174;2022-11-12T07:16:08;40.40;;;27.85;;
50350;SDS011;36250;48.740;22.174;2022-11-12T07:18:35;45.85;;;28.48;;
50350;SDS011;36250;48.740;22.174;2022-11-12T07:21:06;38.03;;;27.42;;
50350;SDS011;36250;48.740;22.174;2022-11-12T07:23:34;39.42;;;26.25;;
50350;SDS011;36250;48.740;22.174;2022-11-12T07:26:07;43.88;;;26.40;;
50350;SDS011;36250;48.740;22.174;2022-11-12T07:28:39;33.67;;;23.85;;
50350;SDS011;36250;48.740;22.174;2022-11-12T07:31:06;37.53;;;24.30;;
50350;SDS011;36250;48.740;22.174;2022-11-12T07:33:33;39.10;;;25.83;;
50350;SDS011;36250;48.740;22.174;2022-11-12T07:36:09;38.08;;;25.00;;
50350;SDS011;36250;48.740;22.174;2022-11-12T07:38:39;49.58;;;24.52;;
50350;SDS011;36250;48.740;22.174;2022-11-12T07:41:06;39.90;;;24.73;;
50350;SDS011;36250;48.740;22.174;2022-11-12T07:43:32;38.83;;;25.80;;
50350;SDS011;36250;48.740;22.174;2022-11-12T07:46:00;39.42;;;24.25;;
50350;SDS011;36250;48.740;22.174;2022-11-12T07:48:27;36.85;;;24.25;;
50350;SDS011;36250;48.740;22.174;2022-11-12T07:51:06;35.13;;;22.95;;
50350;SDS011;36250;48.740;22.174;2022-11-12T07:53:36;39.20;;;26.65;;
50350;SDS011;36250;48.740;22.174;2022-11-12T07:56:02;37.22;;;23.77;;
50350;SDS011;36250;48.740;22.174;2022-11-12T07:58:29;39.33;;;24.20;;
50350;SDS011;36250;48.740;22.174;2022-11-12T08:00:56;35.83;;;22.92;;
50350;SDS011;36250;48.740;22.174;2022-11-12T08:03:21;34.58;;;23.65;;
50350;SDS011;36250;48.740;22.174;2022-11-12T08:05:46;38.22;;;24.02;;
50350;SDS011;36250;48.740;22.174;2022-11-12T08:08:12;34.65;;;22.30;;
50350;SDS011;36250;48.740;22.174;2022-11-12T08:10:37;35.22;;;22.63;;
50350;SDS011;36250;48.740;22.174;2022-11-12T08:13:03;35.78;;;22.88;;
50350;SDS011;36250;48.740;22.174;2022-11-12T08:15:28;34.88;;;23.45;;
50350;SDS011;36250;48.740;22.174;2022-11-12T08:17:55;35.40;;;22.33;;
50350;SDS011;36250;48.740;22.174;2022-11-12T08:20:20;34.17;;;22.85;;
50350;SDS011;36250;48.740;22.174;2022-11-12T08:22:46;33.63;;;23.08;;
50350;SDS011;36250;48.740;22.174;2022-11-12T08:25:12;47.85;;;33.35;;
50350;SDS011;36250;48.740;22.174;2022-11-12T08:27:37;36.05;;;23.35;;
50350;SDS011;36250;48.740;22.174;2022-11-12T08:30:03;33.20;;;24.65;;
50350;SDS011;36250;48.740;22.174;2022-11-12T08:32:28;36.10;;;25.35;;
50350;SDS011;36250;48.740;22.174;2022-11-12T08:34:54;39.63;;;23.85;;
50350;SDS011;36250;48.740;22.174;2022-11-12T08:37:19;36.75;;;24.90;;
50350;SDS011;36250;48.740;22.174;2022-11-12T08:39:44;33.55;;;24.13;;
50350;SDS011;36250;48.740;22.174;2022-11-12T08:42:10;40.95;;;24.05;;
50350;SDS011;36250;48.740;22.174;2022-11-12T08:44:35;35.67;;;23.83;;
50350;SDS011;36250;48.740;22.174;2022-11-12T08:47:00;34.42;;;25.63;;
50350;SDS011;36250;48.740;22.174;2022-11-12T08:49:26;32.20;;;23.63;;
50350;SDS011;36250;48.740;22.174;2022-11-12T08:51:53;34.92;;;24.05;;
50350;SDS011;36250;48.740;22.174;2022-11-12T08:54:18;36.58;;;24.00;;
50350;SDS011;36250;48.740;22.174;2022-11-12T08:56:44;40.20;;;26.02;;
50350;SDS011;36250;48.740;22.174;2022-11-12T08:59:09;39.60;;;27.02;;
50350;SDS011;36250;48.740;22.174;2022-11-12T09:01:34;39.80;;;26.10;;
50350;SDS011;36250;48.740;22.174;2022-11-12T09:04:00;33.53;;;23.48;;
50350;SDS011;36250;48.740;22.174;2022-11-12T09:06:25;31.55;;;23.25;;
50350;SDS011;36250;48.740;22.174;2022-11-12T09:08:50;35.20;;;24.92;;
50350;SDS011;36250;48.740;22.174;2022-11-12T09:11:16;39.50;;;25.65;;
50350;SDS011;36250;48.740;22.174;2022-11-12T09:13:42;37.95;;;24.52;;
50350;SDS011;36250;48.740;22.174;2022-11-12T09:16:08;37.88;;;25.38;;
50350;SDS011;36250;48.740;22.174;2022-11-12T09:18:34;43.63;;;24.85;;
50350;SDS011;36250;48.740;22.174;2022-11-12T09:21:03;35.72;;;25.83;;
50350;SDS011;36250;48.740;22.174;2022-11-12T09:23:32;33.78;;;24.67;;
50350;SDS011;36250;48.740;22.174;2022-11-12T09:25:58;35.65;;;22.58;;
50350;SDS011;36250;48.740;22.174;2022-11-12T09:28:23;34.60;;;24.70;;
50350;SDS011;36250;48.740;22.174;2022-11-12T09:30:49;35.92;;;24.80;;
50350;SDS011;36250;48.740;22.174;2022-11-12T09:33:17;33.70;;;24.13;;
50350;SDS011;36250;48.740;22.174;2022-11-12T09:35:45;34.45;;;23.60;;
50350;SDS011;36250;48.740;22.174;2022-11-12T09:38:10;35.75;;;24.92;;
50350;SDS011;36250;48.740;22.174;2022-11-12T09:40:40;34.70;;;24.48;;
50350;SDS011;36250;48.740;22.174;2022-11-12T09:43:17;34.75;;;23.90;;
50350;SDS011;36250;48.740;22.174;2022-11-12T09:45:50;37.30;;;23.88;;
50350;SDS011;36250;48.740;22.174;2022-11-12T09:48:19;39.13;;;26.05;;
50350;SDS011;36250;48.740;22.174;2022-11-12T09:51:00;35.45;;;25.45;;
50350;SDS011;36250;48.740;22.174;2022-11-12T09:53:31;33.42;;;24.08;;
50350;SDS011;36250;48.740;22.174;2022-11-12T09:56:06;37.13;;;25.98;;
50350;SDS011;36250;48.740;22.174;2022-11-12T09:58:35;37.03;;;24.83;;
50350;SDS011;36250;48.740;22.174;2022-11-12T10:07:05;36.23;;;24.30;;
50350;SDS011;36250;48.740;22.174;2022-11-12T10:15:11;35.40;;;25.77;;
50350;SDS011;36250;48.740;22.174;2022-11-12T10:20:49;36.92;;;26.23;;
50350;SDS011;36250;48.740;22.174;2022-11-12T10:23:20;36.00;;;24.30;;
50350;SDS011;36250;48.740;22.174;2022-11-12T10:25:50;37.90;;;25.20;;
50350;SDS011;36250;48.740;22.174;2022-11-12T10:28:24;35.22;;;23.80;;
50350;SDS011;36250;48.740;22.174;2022-11-12T10:30:53;33.40;;;23.67;;
50350;SDS011;36250;48.740;22.174;2022-11-12T10:33:28;36.22;;;23.73;;
50350;SDS011;36250;48.740;22.174;2022-11-12T10:36:01;32.60;;;22.40;;
50350;SDS011;36250;48.740;22.174;2022-11-12T10:38:39;33.47;;;24.85;;
50350;SDS011;36250;48.740;22.174;2022-11-12T10:41:21;32.42;;;22.88;;
50350;SDS011;36250;48.740;22.174;2022-11-12T10:43:52;34.85;;;24.75;;
50350;SDS011;36250;48.740;22.174;2022-11-12T10:46:20;42.85;;;25.73;;
50350;SDS011;36250;48.740;22.174;2022-11-12T10:48:58;37.08;;;24.55;;
50350;SDS011;36250;48.740;22.174;2022-11-12T10:51:33;38.38;;;24.75;;
50350;SDS011;36250;48.740;22.174;2022-11-12T10:54:20;31.65;;;21.70;;
50350;SDS011;36250;48.740;22.174;2022-11-12T10:56:46;32.80;;;22.55;;
50350;SDS011;36250;48.740;22.174;2022-11-12T10:59:14;38.53;;;23.70;;
50350;SDS011;36250;48.740;22.174;2022-11-12T11:01:43;42.83;;;25.30;;
50350;SDS011;36250;48.740;22.174;2022-11-12T11:04:16;45.63;;;25.20;;
50350;SDS011;36250;48.740;22.174;2022-11-12T11:06:56;44.60;;;23.83;;
50350;SDS011;36250;48.740;22.174;2022-11-12T11:09:50;40.00;;;23.75;;
50350;SDS011;36250;48.740;22.174;2022-11-12T11:12:27;32.30;;;23.35;;
50350;SDS011;36250;48.740;22.174;2022-11-12T11:17:35;33.85;;;23.10;;
50350;SDS011;36250;48.740;22.174;2022-11-12T11:20:02;32.47;;;23.85;;
50350;SDS011;36250;48.740;22.174;2022-11-12T11:22:40;38.17;;;22.92;;
50350;SDS011;36250;48.740;22.174;2022-11-12T11:25:19;39.33;;;21.85;;
50350;SDS011;36250;48.740;22.174;2022-11-12T11:31:24;35.58;;;22.15;;
50350;SDS011;36250;48.740;22.174;2022-11-12T11:36:45;40.10;;;23.52;;
50350;SDS011;36250;48.740;22.174;2022-11-12T11:44:50;32.20;;;21.58;;
50350;SDS011;36250;48.740;22.174;2022-11-12T11:47:36;36.95;;;22.48;;
50350;SDS011;36250;48.740;22.174;2022-11-12T11:50:10;42.70;;;23.17;;
50350;SDS011;36250;48.740;22.174;2022-11-12T11:55:34;36.15;;;23.45;;
50350;SDS011;36250;48.740;22.174;2022-11-12T12:06:25;35.13;;;23.20;;
50350;SDS011;36250;48.740;22.174;2022-11-12T12:25:26;39.05;;;27.10;;
50350;SDS011;36250;48.740;22.174;2022-11-12T12:28:01;41.50;;;26.67;;
50350;SDS011;36250;48.740;22.174;2022-11-12T12:30:26;41.20;;;26.08;;
50350;SDS011;36250;48.740;22.174;2022-11-12T12:40:36;44.45;;;23.65;;
50350;SDS011;36250;48.740;22.174;2022-11-12T12:45:44;42.85;;;26.60;;
50350;SDS011;36250;48.740;22.174;2022-11-12T12:48:32;42.08;;;25.20;;
50350;SDS011;36250;48.740;22.174;2022-11-12T12:50:56;42.08;;;28.65;;
50350;SDS011;36250;48.740;22.174;2022-11-12T12:55:54;54.72;;;25.52;;
50350;SDS011;36250;48.740;22.174;2022-11-12T13:00:52;48.53;;;32.42;;
50350;SDS011;36250;48.740;22.174;2022-11-12T13:03:45;50.25;;;31.95;;
50350;SDS011;36250;48.740;22.174;2022-11-12T13:06:13;48.53;;;29.83;;
50350;SDS011;36250;48.740;22.174;2022-11-12T13:08:39;46.72;;;29.98;;
50350;SDS011;36250;48.740;22.174;2022-11-12T13:11:05;41.80;;;26.52;;
50350;SDS011;36250;48.740;22.174;2022-11-12T13:13:34;44.13;;;25.10;;
50350;SDS011;36250;48.740;22.174;2022-11-12T13:16:02;38.88;;;24.05;;
50350;SDS011;36250;48.740;22.174;2022-11-12T13:21:06;39.25;;;23.75;;
50350;SDS011;36250;48.740;22.174;2022-11-12T13:23:49;38.15;;;23.15;;
50350;SDS011;36250;48.740;22.174;2022-11-12T13:29:22;40.92;;;24.23;;
50350;SDS011;36250;48.740;22.174;2022-11-12T13:32:24;33.55;;;22.55;;
50350;SDS011;36250;48.740;22.174;2022-11-12T13:37:35;38.38;;;23.73;;
50350;SDS011;36250;48.740;22.174;2022-11-12T13:40:11;38.15;;;24.23;;
50350;SDS011;36250;48.740;22.174;2022-11-12T13:42:39;41.40;;;23.38;;
50350;SDS011;36250;48.740;22.174;2022-11-12T13:45:17;38.08;;;23.08;;
50350;SDS011;36250;48.740;22.174;2022-11-12T13:47:45;43.90;;;27.35;;
50350;SDS011;36250;48.740;22.174;2022-11-12T13:50:18;41.38;;;25.95;;
50350;SDS011;36250;48.740;22.174;2022-11-12T13:52:47;41.38;;;25.10;;
50350;SDS011;36250;48.740;22.174;2022-11-12T13:55:14;50.22;;;29.50;;
50350;SDS011;36250;48.740;22.174;2022-11-12T13:57:47;42.38;;;28.13;;
50350;SDS011;36250;48.740;22.174;2022-11-12T14:02:47;42.53;;;25.95;;
50350;SDS011;36250;48.740;22.174;2022-11-12T14:05:16;40.10;;;27.38;;
50350;SDS011;36250;48.740;22.174;2022-11-12T14:07:49;42.70;;;26.92;;
50350;SDS011;36250;48.740;22.174;2022-11-12T14:13:54;56.25;;;33.25;;
50350;SDS011;36250;48.740;22.174;2022-11-12T14:21:14;55.17;;;35.25;;
50350;SDS011;36250;48.740;22.174;2022-11-12T14:23:44;67.47;;;42.75;;
50350;SDS011;36250;48.740;22.174;2022-11-12T14:26:12;69.32;;;47.50;;
50350;SDS011;36250;48.740;22.174;2022-11-12T14:28:38;66.57;;;44.33;;
50350;SDS011;36250;48.740;22.174;2022-11-12T14:31:10;65.95;;;43.88;;
50350;SDS011;36250;48.740;22.174;2022-11-12T14:33:38;53.10;;;37.70;;
50350;SDS011;36250;48.740;22.174;2022-11-12T14:36:10;59.67;;;38.85;;
50350;SDS011;36250;48.740;22.174;2022-11-12T14:38:56;58.08;;;39.60;;
50350;SDS011;36250;48.740;22.174;2022-11-12T14:41:24;67.85;;;44.35;;
50350;SDS011;36250;48.740;22.174;2022-11-12T14:43:57;67.32;;;41.17;;
50350;SDS011;36250;48.740;22.174;2022-11-12T14:46:26;87.97;;;49.38;;
50350;SDS011;36250;48.740;22.174;2022-11-12T14:48:55;82.07;;;49.17;;
50350;SDS011;36250;48.740;22.174;2022-11-12T14:51:25;72.72;;;43.35;;
50350;SDS011;36250;48.740;22.174;2022-11-12T14:54:04;80.10;;;47.67;;
50350;SDS011;36250;48.740;22.174;2022-11-12T14:56:41;102.80;;;57.28;;
50350;SDS011;36250;48.740;22.174;2022-11-12T14:59:11;81.10;;;46.47;;
50350;SDS011;36250;48.740;22.174;2022-11-12T15:01:39;81.95;;;47.25;;
50350;SDS011;36250;48.740;22.174;2022-11-12T15:04:25;91.78;;;48.05;;
50350;SDS011;36250;48.740;22.174;2022-11-12T15:06:54;88.80;;;49.40;;
50350;SDS011;36250;48.740;22.174;2022-11-12T15:09:31;68.82;;;41.97;;
50350;SDS011;36250;48.740;22.174;2022-11-12T15:11:58;64.15;;;40.75;;
50350;SDS011;36250;48.740;22.174;2022-11-12T15:14:24;53.50;;;34.63;;
50350;SDS011;36250;48.740;22.174;2022-11-12T15:16:50;57.85;;;35.17;;
50350;SDS011;36250;48.740;22.174;2022-11-12T15:21:46;49.83;;;34.45;;
50350;SDS011;36250;48.740;22.174;2022-11-12T15:24:15;46.72;;;31.98;;
50350;SDS011;36250;48.740;22.174;2022-11-12T15:26:42;50.08;;;34.95;;
50350;SDS011;36250;48.740;22.174;2022-11-12T15:31:44;51.63;;;35.03;;
50350;SDS011;36250;48.740;22.174;2022-11-12T15:36:49;58.13;;;36.17;;
50350;SDS011;36250;48.740;22.174;2022-11-12T15:39:15;61.50;;;36.67;;
50350;SDS011;36250;48.740;22.174;2022-11-12T15:41:40;59.25;;;37.10;;
50350;SDS011;36250;48.740;22.174;2022-11-12T15:44:07;64.63;;;39.78;;
50350;SDS011;36250;48.740;22.174;2022-11-12T15:46:33;68.18;;;41.90;;
50350;SDS011;36250;48.740;22.174;2022-11-12T15:48:59;63.33;;;39.80;;
50350;SDS011;36250;48.740;22.174;2022-11-12T15:51:24;62.45;;;39.90;;
50350;SDS011;36250;48.740;22.174;2022-11-12T15:53:49;69.63;;;41.95;;
50350;SDS011;36250;48.740;22.174;2022-11-12T15:56:16;64.85;;;42.50;;
50350;SDS011;36250;48.740;22.174;2022-11-12T15:58:45;76.38;;;45.15;;
50350;SDS011;36250;48.740;22.174;2022-11-12T16:01:11;70.28;;;45.13;;